LFOELFAC

Guest
Details From LFOE - FAUVILLE
To LFAC - Calais Dunkerque
Flight Number -
Tags generated
Created
Modified
Stats Distance 120 nm / 221 km
Max Altitude 0 ft / 0 m
Waypoints 2
Social Downloads 5
Likes 0
Share

Download

Looking for another format? Having issues loading an existing format? Contact us
Advertisement - Login to hide

Notes

Basic altitude profile: - Ascent Rate: 500ft/min - Ascent Speed: 75kts - Cruise Altitude: 20ft - Cruise Speed: 104kts - Descent Rate: -500ft/min - Descent Speed: 75kts Options: - Use NATs: yes - Use PACOTS: yes - Use low airways: no - Use high airways: no

Route

LFOE LFAC

ID Type Via Altitude (ft/m) Position (lat/lon) Dist (leg/tot) Name
O LFOE APT - 0 / 0 49.02867 / 1.21987 - / 0 nm FAUVILLE
O LFAC APT - 0 / 0 50.96210 / 1.95471 119 / 119 nm Calais Dunkerque

Altitude Profile

Advertisement - Login to hide

LFOE

Details ICAO LFOE (EVX)
Name FAUVILLE
Region France
Timezone Europe/Paris (UTC+2.0)
Stats Elevation 463 ft / 141 m (AMSL)
Location 49.028700° 1.219860°
Runways 1
Magnetic Variation 0.716° E

METAR

LFOE 261930Z AUTO 25004KT 230V290 CAVOK 18/14 Q1013 TEMPO SCT030TCU

Decode

TAF

TAF LFOE 261400Z 2615/2715 26010KT 9999 BKN030 TEMPO 2615/2618 27012G22KT 4000 SHRA BKN025CB PROB30 TEMPO 2615/2618 -TSRA PROB40 TEMPO 2618/2621 SCT030TCU BECMG 2700/2703 BKN005 TEMPO 2704/2715 25015G25KT 3000 SHRA BKN010CB BECMG 2709/2712 BKN030

Decode

Departure Runways

ID Width Length Bearing (true/mag) Surface Threshold Overrun Markings Lighting
04 148 ft / 45 m 9,836 ft / 2,998 m 39.78° / 39.07° ASPHALT 0 ft / 0 m 0 ft / 0 m PREC-APP CENTERLINE EDGE THRESHOLD REIL-OMNI
22 148 ft / 45 m 9,836 ft / 2,998 m 219.80° / 219.09° ASPHALT 0 ft / 0 m 0 ft / 0 m PREC-APP CENTERLINE EDGE THRESHOLD CALVERT REIL-OMNI

LFAC

Details ICAO LFAC (CQF)
Name Calais Dunkerque
Region France
Timezone Europe/Paris (UTC+2.0)
Stats Elevation 13 ft / 4 m (AMSL)
Location 50.962100° 1.954760°
Runways 1
Magnetic Variation 0.817° E

METAR

LFAC 261930Z AUTO 23010KT CAVOK 18/15 Q1011

Decode

TAF

Not found

Destination Runways

ID Width Length Bearing (true/mag) Surface Threshold Overrun Markings Lighting
06 148 ft / 45 m 5,041 ft / 1,536 m 60.96° / 60.15° ASPHALT 0 ft / 0 m 0 ft / 0 m APP EDGE THRESHOLD REIL-OMNI
24 148 ft / 45 m 5,041 ft / 1,536 m 240.98° / 240.16° ASPHALT 0 ft / 0 m 0 ft / 0 m PREC-APP EDGE THRESHOLD ALSF-I

Approach Navaids

Runway Type Ident Frequency Range Bearing (true/mag) Slope Elevation
24 GS MK 110.50 MHz 10 nm / 19 km 241.02° / 240.20 ° 3.00° 10 ft / 3 m (AMSL)
24 DME MK 110.55 MHz 18 nm / 33 km - - 10 ft / 3 m (AMSL)
24 OM OM - - 240.97° / 240.15 ° - 10 ft / 3 m (AMSL)
24 LOC-ILS MK 110.50 MHz 18 nm / 33 km 241.01° / 240.19 ° - 10 ft / 3 m (AMSL)